sensor_id;sensor_type;location;lat;lon;timestamp;temperature;humidity
43991;DHT22;29654;50.784;20.604;2022-10-03T00:01:12;15.80;62.00
43991;DHT22;29654;50.784;20.604;2022-10-03T00:06:31;15.80;62.10
43991;DHT22;29654;50.784;20.604;2022-10-03T00:11:55;15.90;61.60
43991;DHT22;29654;50.784;20.604;2022-10-03T00:17:09;15.90;61.90
43991;DHT22;29654;50.784;20.604;2022-10-03T00:22:24;15.90;61.50
43991;DHT22;29654;50.784;20.604;2022-10-03T00:27:43;15.90;61.30
43991;DHT22;29654;50.784;20.604;2022-10-03T00:33:01;16.00;61.30
43991;DHT22;29654;50.784;20.604;2022-10-03T00:38:20;16.00;61.30
43991;DHT22;29654;50.784;20.604;2022-10-03T00:44:15;16.00;61.60
43991;DHT22;29654;50.784;20.604;2022-10-03T00:55:56;16.00;62.00
43991;DHT22;29654;50.784;20.604;2022-10-03T01:01:27;16.00;61.80
43991;DHT22;29654;50.784;20.604;2022-10-03T01:06:42;16.00;63.10
43991;DHT22;29654;50.784;20.604;2022-10-03T01:12:01;15.90;62.00
43991;DHT22;29654;50.784;20.604;2022-10-03T01:17:26;15.90;62.40
43991;DHT22;29654;50.784;20.604;2022-10-03T01:28:45;16.00;62.90
43991;DHT22;29654;50.784;20.604;2022-10-03T01:34:11;16.00;62.10
43991;DHT22;29654;50.784;20.604;2022-10-03T01:39:25;16.00;62.00
43991;DHT22;29654;50.784;20.604;2022-10-03T01:44:44;16.00;62.10
43991;DHT22;29654;50.784;20.604;2022-10-03T01:50:03;16.00;61.90
43991;DHT22;29654;50.784;20.604;2022-10-03T01:55:14;16.00;61.80
43991;DHT22;29654;50.784;20.604;2022-10-03T02:00:25;16.00;61.70
43991;DHT22;29654;50.784;20.604;2022-10-03T02:05:40;16.00;61.70
43991;DHT22;29654;50.784;20.604;2022-10-03T02:10:54;16.00;61.80
43991;DHT22;29654;50.784;20.604;2022-10-03T02:16:08;16.00;61.70
43991;DHT22;29654;50.784;20.604;2022-10-03T02:21:15;16.00;61.70
43991;DHT22;29654;50.784;20.604;2022-10-03T02:26:51;15.90;61.80
43991;DHT22;29654;50.784;20.604;2022-10-03T02:32:35;15.90;62.50
43991;DHT22;29654;50.784;20.604;2022-10-03T02:38:33;15.90;62.50
43991;DHT22;29654;50.784;20.604;2022-10-03T02:44:17;15.90;62.70
43991;DHT22;29654;50.784;20.604;2022-10-03T02:50:13;15.90;62.40
43991;DHT22;29654;50.784;20.604;2022-10-03T03:02:04;15.80;62.70
43991;DHT22;29654;50.784;20.604;2022-10-03T03:07:49;15.80;62.50
43991;DHT22;29654;50.784;20.604;2022-10-03T03:13:30;15.80;63.00
43991;DHT22;29654;50.784;20.604;2022-10-03T03:19:02;15.90;62.40
43991;DHT22;29654;50.784;20.604;2022-10-03T03:24:40;15.90;61.90
43991;DHT22;29654;50.784;20.604;2022-10-03T03:29:58;15.90;62.30
43991;DHT22;29654;50.784;20.604;2022-10-03T03:35:09;15.80;62.00
43991;DHT22;29654;50.784;20.604;2022-10-03T03:40:30;15.80;62.10
43991;DHT22;29654;50.784;20.604;2022-10-03T03:45:55;15.80;62.50
43991;DHT22;29654;50.784;20.604;2022-10-03T03:51:14;15.80;62.50
43991;DHT22;29654;50.784;20.604;2022-10-03T03:56:40;15.80;62.50
43991;DHT22;29654;50.784;20.604;2022-10-03T04:02:02;15.80;62.90
43991;DHT22;29654;50.784;20.604;2022-10-03T04:07:21;15.70;63.60
43991;DHT22;29654;50.784;20.604;2022-10-03T04:13:02;15.60;63.30
43991;DHT22;29654;50.784;20.604;2022-10-03T04:18:31;15.60;63.60
43991;DHT22;29654;50.784;20.604;2022-10-03T04:24:30;15.60;63.30
43991;DHT22;29654;50.784;20.604;2022-10-03T04:30:02;15.60;63.50
43991;DHT22;29654;50.784;20.604;2022-10-03T04:35:26;15.60;63.00
43991;DHT22;29654;50.784;20.604;2022-10-03T04:40:44;15.60;63.80
43991;DHT22;29654;50.784;20.604;2022-10-03T04:46:07;15.60;63.80
43991;DHT22;29654;50.784;20.604;2022-10-03T04:51:23;15.60;63.70
43991;DHT22;29654;50.784;20.604;2022-10-03T04:56:43;15.60;63.70
43991;DHT22;29654;50.784;20.604;2022-10-03T05:01:55;15.60;63.90
43991;DHT22;29654;50.784;20.604;2022-10-03T05:07:10;15.60;64.10
43991;DHT22;29654;50.784;20.604;2022-10-03T05:12:20;15.60;64.10
43991;DHT22;29654;50.784;20.604;2022-10-03T05:17:41;15.60;64.20
43991;DHT22;29654;50.784;20.604;2022-10-03T05:22:54;15.50;64.50
43991;DHT22;29654;50.784;20.604;2022-10-03T05:28:06;15.60;64.20
43991;DHT22;29654;50.784;20.604;2022-10-03T05:33:25;15.50;64.40
43991;DHT22;29654;50.784;20.604;2022-10-03T05:44:32;15.60;64.50
43991;DHT22;29654;50.784;20.604;2022-10-03T05:49:59;15.60;63.70
43991;DHT22;29654;50.784;20.604;2022-10-03T05:55:28;15.60;64.20
43991;DHT22;29654;50.784;20.604;2022-10-03T06:07:04;15.50;65.30
43991;DHT22;29654;50.784;20.604;2022-10-03T06:12:20;15.50;65.40
43991;DHT22;29654;50.784;20.604;2022-10-03T06:17:44;15.50;65.00
43991;DHT22;29654;50.784;20.604;2022-10-03T06:35:03;15.50;66.40
43991;DHT22;29654;50.784;20.604;2022-10-03T06:40:45;15.50;65.80
43991;DHT22;29654;50.784;20.604;2022-10-03T06:52:45;15.50;65.60
43991;DHT22;29654;50.784;20.604;2022-10-03T07:04:11;15.50;66.00
43991;DHT22;29654;50.784;20.604;2022-10-03T07:10:01;15.50;65.80
43991;DHT22;29654;50.784;20.604;2022-10-03T07:27:09;15.50;66.60
43991;DHT22;29654;50.784;20.604;2022-10-03T07:32:33;15.50;66.30
43991;DHT22;29654;50.784;20.604;2022-10-03T07:56:02;15.70;65.70
43991;DHT22;29654;50.784;20.604;2022-10-03T08:01:32;15.70;65.50
43991;DHT22;29654;50.784;20.604;2022-10-03T08:07:01;15.70;65.60
43991;DHT22;29654;50.784;20.604;2022-10-03T08:12:51;15.80;65.50
43991;DHT22;29654;50.784;20.604;2022-10-03T08:18:26;15.80;65.90
43991;DHT22;29654;50.784;20.604;2022-10-03T08:24:08;15.90;66.10
43991;DHT22;29654;50.784;20.604;2022-10-03T08:30:03;15.90;65.60
43991;DHT22;29654;50.784;20.604;2022-10-03T08:42:13;15.90;65.20
43991;DHT22;29654;50.784;20.604;2022-10-03T08:54:00;15.80;66.00
43991;DHT22;29654;50.784;20.604;2022-10-03T08:59:40;15.80;65.50
43991;DHT22;29654;50.784;20.604;2022-10-03T09:05:39;15.80;65.70
43991;DHT22;29654;50.784;20.604;2022-10-03T09:17:08;15.80;66.60
43991;DHT22;29654;50.784;20.604;2022-10-03T09:23:06;15.80;65.90
43991;DHT22;29654;50.784;20.604;2022-10-03T09:46:51;16.00;65.10
43991;DHT22;29654;50.784;20.604;2022-10-03T09:52:43;16.10;64.40
43991;DHT22;29654;50.784;20.604;2022-10-03T09:58:26;16.10;63.90
43991;DHT22;29654;50.784;20.604;2022-10-03T10:04:23;16.20;63.80
43991;DHT22;29654;50.784;20.604;2022-10-03T10:39:32;16.50;63.30
43991;DHT22;29654;50.784;20.604;2022-10-03T10:56:59;16.70;63.60
43991;DHT22;29654;50.784;20.604;2022-10-03T11:02:34;16.70;63.60
43991;DHT22;29654;50.784;20.604;2022-10-03T11:08:34;16.70;64.40
43991;DHT22;29654;50.784;20.604;2022-10-03T11:38:32;17.00;62.60
43991;DHT22;29654;50.784;20.604;2022-10-03T11:44:04;17.00;62.90
43991;DHT22;29654;50.784;20.604;2022-10-03T11:49:30;16.90;62.40
43991;DHT22;29654;50.784;20.604;2022-10-03T11:54:47;16.90;63.30
43991;DHT22;29654;50.784;20.604;2022-10-03T11:59:58;16.90;63.30
43991;DHT22;29654;50.784;20.604;2022-10-03T12:05:20;16.90;63.30
43991;DHT22;29654;50.784;20.604;2022-10-03T12:10:35;17.00;62.80
43991;DHT22;29654;50.784;20.604;2022-10-03T12:15:48;17.10;62.60
43991;DHT22;29654;50.784;20.604;2022-10-03T12:21:06;17.20;62.10
43991;DHT22;29654;50.784;20.604;2022-10-03T12:26:15;17.20;62.40
43991;DHT22;29654;50.784;20.604;2022-10-03T12:31:23;17.30;62.20
43991;DHT22;29654;50.784;20.604;2022-10-03T12:36:35;17.40;62.20
43991;DHT22;29654;50.784;20.604;2022-10-03T12:41:56;17.50;61.60
43991;DHT22;29654;50.784;20.604;2022-10-03T12:47:23;17.60;60.80
43991;DHT22;29654;50.784;20.604;2022-10-03T12:52:36;17.70;61.20
43991;DHT22;29654;50.784;20.604;2022-10-03T12:57:47;17.80;59.80
43991;DHT22;29654;50.784;20.604;2022-10-03T13:03:14;17.90;60.00
43991;DHT22;29654;50.784;20.604;2022-10-03T13:08:37;18.00;59.20
43991;DHT22;29654;50.784;20.604;2022-10-03T13:14:02;18.10;58.70
43991;DHT22;29654;50.784;20.604;2022-10-03T13:19:14;18.10;58.30
43991;DHT22;29654;50.784;20.604;2022-10-03T13:24:27;18.00;58.50
43991;DHT22;29654;50.784;20.604;2022-10-03T13:29:36;18.00;58.60
43991;DHT22;29654;50.784;20.604;2022-10-03T13:40:54;17.90;57.30
43991;DHT22;29654;50.784;20.604;2022-10-03T13:46:00;18.00;58.30
43991;DHT22;29654;50.784;20.604;2022-10-03T13:51:13;18.00;57.90
43991;DHT22;29654;50.784;20.604;2022-10-03T13:56:33;18.10;58.10
43991;DHT22;29654;50.784;20.604;2022-10-03T14:01:49;18.10;56.80
43991;DHT22;29654;50.784;20.604;2022-10-03T14:07:01;18.20;57.00
43991;DHT22;29654;50.784;20.604;2022-10-03T14:12:18;18.30;56.80
43991;DHT22;29654;50.784;20.604;2022-10-03T14:17:31;18.40;57.40
43991;DHT22;29654;50.784;20.604;2022-10-03T14:22:50;18.50;57.00
43991;DHT22;29654;50.784;20.604;2022-10-03T14:28:19;18.60;56.60
43991;DHT22;29654;50.784;20.604;2022-10-03T14:33:33;18.60;56.80
43991;DHT22;29654;50.784;20.604;2022-10-03T14:39:00;18.60;56.70
43991;DHT22;29654;50.784;20.604;2022-10-03T14:44:09;18.60;56.40
43991;DHT22;29654;50.784;20.604;2022-10-03T14:49:19;18.40;56.50
43991;DHT22;29654;50.784;20.604;2022-10-03T14:54:27;18.40;56.40
43991;DHT22;29654;50.784;20.604;2022-10-03T14:59:33;18.30;56.60
43991;DHT22;29654;50.784;20.604;2022-10-03T15:04:39;18.10;56.70
43991;DHT22;29654;50.784;20.604;2022-10-03T15:09:48;18.00;56.70
43991;DHT22;29654;50.784;20.604;2022-10-03T15:14:59;18.00;57.00
43991;DHT22;29654;50.784;20.604;2022-10-03T15:20:05;17.90;57.00
43991;DHT22;29654;50.784;20.604;2022-10-03T15:25:13;17.90;57.10
43991;DHT22;29654;50.784;20.604;2022-10-03T15:30:20;17.80;57.00
43991;DHT22;29654;50.784;20.604;2022-10-03T15:35:26;17.80;57.10
43991;DHT22;29654;50.784;20.604;2022-10-03T15:40:33;17.70;57.10
43991;DHT22;29654;50.784;20.604;2022-10-03T15:45:39;17.70;57.20
43991;DHT22;29654;50.784;20.604;2022-10-03T15:50:48;17.70;57.40
43991;DHT22;29654;50.784;20.604;2022-10-03T15:55:58;17.60;57.50
43991;DHT22;29654;50.784;20.604;2022-10-03T16:01:09;17.50;57.60
43991;DHT22;29654;50.784;20.604;2022-10-03T16:06:19;17.40;57.70
43991;DHT22;29654;50.784;20.604;2022-10-03T16:11:26;17.30;57.90
43991;DHT22;29654;50.784;20.604;2022-10-03T16:16:34;17.20;58.00
43991;DHT22;29654;50.784;20.604;2022-10-03T16:21:44;17.20;58.10
43991;DHT22;29654;50.784;20.604;2022-10-03T16:26:53;17.10;58.20
43991;DHT22;29654;50.784;20.604;2022-10-03T16:32:02;17.00;58.30
43991;DHT22;29654;50.784;20.604;2022-10-03T16:37:16;16.90;58.40
43991;DHT22;29654;50.784;20.604;2022-10-03T16:42:24;16.90;58.70
43991;DHT22;29654;50.784;20.604;2022-10-03T16:47:33;16.80;58.70
43991;DHT22;29654;50.784;20.604;2022-10-03T16:52:38;16.80;58.90
43991;DHT22;29654;50.784;20.604;2022-10-03T16:57:46;16.80;59.00
43991;DHT22;29654;50.784;20.604;2022-10-03T17:02:53;16.70;59.00
43991;DHT22;29654;50.784;20.604;2022-10-03T17:07:59;16.70;59.00
43991;DHT22;29654;50.784;20.604;2022-10-03T17:13:10;16.50;59.00
43991;DHT22;29654;50.784;20.604;2022-10-03T17:18:21;16.50;59.40
43991;DHT22;29654;50.784;20.604;2022-10-03T17:23:30;16.40;59.60
43991;DHT22;29654;50.784;20.604;2022-10-03T17:28:40;16.30;59.60
43991;DHT22;29654;50.784;20.604;2022-10-03T17:33:48;16.30;59.90
43991;DHT22;29654;50.784;20.604;2022-10-03T17:38:59;16.30;59.90
43991;DHT22;29654;50.784;20.604;2022-10-03T17:44:14;16.30;59.80
43991;DHT22;29654;50.784;20.604;2022-10-03T17:49:28;16.20;59.50
43991;DHT22;29654;50.784;20.604;2022-10-03T17:54:45;16.10;59.40
43991;DHT22;29654;50.784;20.604;2022-10-03T17:59:55;16.00;59.30
43991;DHT22;29654;50.784;20.604;2022-10-03T18:05:07;15.90;59.30
43991;DHT22;29654;50.784;20.604;2022-10-03T18:10:21;15.90;59.40
43991;DHT22;29654;50.784;20.604;2022-10-03T18:21:42;15.70;60.90
43991;DHT22;29654;50.784;20.604;2022-10-03T18:27:22;15.50;60.90
43991;DHT22;29654;50.784;20.604;2022-10-03T18:32:52;15.50;61.70
43991;DHT22;29654;50.784;20.604;2022-10-03T18:38:05;15.40;61.50
43991;DHT22;29654;50.784;20.604;2022-10-03T18:43:27;15.30;61.70
43991;DHT22;29654;50.784;20.604;2022-10-03T18:48:56;15.30;62.50
43991;DHT22;29654;50.784;20.604;2022-10-03T18:54:04;15.30;62.20
43991;DHT22;29654;50.784;20.604;2022-10-03T18:59:21;15.20;62.20
43991;DHT22;29654;50.784;20.604;2022-10-03T19:04:38;15.10;62.60
43991;DHT22;29654;50.784;20.604;2022-10-03T19:10:00;15.10;62.80
43991;DHT22;29654;50.784;20.604;2022-10-03T19:15:35;15.10;62.80
43991;DHT22;29654;50.784;20.604;2022-10-03T19:20:47;15.10;63.10
43991;DHT22;29654;50.784;20.604;2022-10-03T19:25:53;15.20;63.00
43991;DHT22;29654;50.784;20.604;2022-10-03T19:31:02;15.20;62.90
43991;DHT22;29654;50.784;20.604;2022-10-03T19:36:13;15.20;62.70
43991;DHT22;29654;50.784;20.604;2022-10-03T19:41:25;15.20;62.70
43991;DHT22;29654;50.784;20.604;2022-10-03T19:46:43;15.30;62.70
43991;DHT22;29654;50.784;20.604;2022-10-03T19:52:09;15.30;62.70
43991;DHT22;29654;50.784;20.604;2022-10-03T19:57:24;15.20;62.70
43991;DHT22;29654;50.784;20.604;2022-10-03T20:02:28;15.20;62.40
43991;DHT22;29654;50.784;20.604;2022-10-03T20:07:43;15.20;62.50
43991;DHT22;29654;50.784;20.604;2022-10-03T20:12:49;15.20;62.80
43991;DHT22;29654;50.784;20.604;2022-10-03T20:17:58;15.10;62.70
43991;DHT22;29654;50.784;20.604;2022-10-03T20:23:05;15.10;62.80
43991;DHT22;29654;50.784;20.604;2022-10-03T20:28:17;15.00;62.80
43991;DHT22;29654;50.784;20.604;2022-10-03T20:33:25;15.00;63.00
43991;DHT22;29654;50.784;20.604;2022-10-03T20:38:40;14.90;63.20
43991;DHT22;29654;50.784;20.604;2022-10-03T20:43:53;14.90;64.00
43991;DHT22;29654;50.784;20.604;2022-10-03T20:49:22;14.90;64.40
43991;DHT22;29654;50.784;20.604;2022-10-03T20:54:34;14.90;65.30
43991;DHT22;29654;50.784;20.604;2022-10-03T20:59:44;14.90;64.90
43991;DHT22;29654;50.784;20.604;2022-10-03T21:04:52;15.00;65.10
43991;DHT22;29654;50.784;20.604;2022-10-03T21:10:06;15.00;65.40
43991;DHT22;29654;50.784;20.604;2022-10-03T21:15:20;15.00;65.50
43991;DHT22;29654;50.784;20.604;2022-10-03T21:20:34;15.10;65.60
43991;DHT22;29654;50.784;20.604;2022-10-03T21:25:42;15.20;65.40
43991;DHT22;29654;50.784;20.604;2022-10-03T21:30:57;15.20;65.10
43991;DHT22;29654;50.784;20.604;2022-10-03T21:36:11;15.30;65.40
43991;DHT22;29654;50.784;20.604;2022-10-03T21:41:24;15.30;65.10
43991;DHT22;29654;50.784;20.604;2022-10-03T21:46:35;15.30;65.30
43991;DHT22;29654;50.784;20.604;2022-10-03T21:51:57;15.30;65.20
43991;DHT22;29654;50.784;20.604;2022-10-03T21:57:10;15.30;65.00
43991;DHT22;29654;50.784;20.604;2022-10-03T22:02:21;15.40;65.00
43991;DHT22;29654;50.784;20.604;2022-10-03T22:07:36;15.40;65.00
43991;DHT22;29654;50.784;20.604;2022-10-03T22:12:44;15.50;64.90
43991;DHT22;29654;50.784;20.604;2022-10-03T22:17:53;15.50;64.50
43991;DHT22;29654;50.784;20.604;2022-10-03T22:23:11;15.60;64.50
43991;DHT22;29654;50.784;20.604;2022-10-03T22:28:29;15.60;64.40
43991;DHT22;29654;50.784;20.604;2022-10-03T22:33:47;15.70;64.40
43991;DHT22;29654;50.784;20.604;2022-10-03T22:38:57;15.80;64.20
43991;DHT22;29654;50.784;20.604;2022-10-03T22:44:05;15.80;63.90
43991;DHT22;29654;50.784;20.604;2022-10-03T22:49:12;15.90;63.80
43991;DHT22;29654;50.784;20.604;2022-10-03T22:54:17;16.00;63.70
43991;DHT22;29654;50.784;20.604;2022-10-03T22:59:24;15.90;63.50
43991;DHT22;29654;50.784;20.604;2022-10-03T23:04:31;16.00;63.40
43991;DHT22;29654;50.784;20.604;2022-10-03T23:09:45;16.00;63.30
43991;DHT22;29654;50.784;20.604;2022-10-03T23:14:54;16.00;63.10
43991;DHT22;29654;50.784;20.604;2022-10-03T23:20:07;15.90;62.90
43991;DHT22;29654;50.784;20.604;2022-10-03T23:25:19;15.80;62.90
43991;DHT22;29654;50.784;20.604;2022-10-03T23:30:52;15.70;63.10
43991;DHT22;29654;50.784;20.604;2022-10-03T23:36:02;15.60;63.10
43991;DHT22;29654;50.784;20.604;2022-10-03T23:41:09;15.60;63.00
43991;DHT22;29654;50.784;20.604;2022-10-03T23:46:18;15.60;63.00
43991;DHT22;29654;50.784;20.604;2022-10-03T23:51:25;15.60;63.20
43991;DHT22;29654;50.784;20.604;2022-10-03T23:56:32;15.50;63.20
